createdAt,value
2018-05-15T00:00:40.740Z,247.40
2018-05-15T00:03:08.249Z,269.53
2018-05-15T00:05:36.501Z,269.83
2018-05-15T00:08:03.991Z,266.53
2018-05-15T00:10:31.518Z,253.23
2018-05-15T00:12:59.009Z,257.30
2018-05-15T00:15:27.225Z,291.03
2018-05-15T00:17:54.718Z,258.07
2018-05-15T00:20:22.220Z,257.03
2018-05-15T00:22:49.707Z,261.90
2018-05-15T00:25:17.548Z,271.73
2018-05-15T00:27:45.043Z,278.60
2018-05-15T00:30:12.520Z,261.20
2018-05-15T00:32:40.021Z,264.73
2018-05-15T00:35:08.423Z,280.73
2018-05-15T00:37:35.914Z,308.27
2018-05-15T00:40:03.393Z,303.57
2018-05-15T00:42:31.669Z,296.93
2018-05-15T00:44:59.965Z,323.60
2018-05-15T00:47:27.529Z,312.70
2018-05-15T00:49:55.011Z,319.27
2018-05-15T00:52:22.524Z,311.27
2018-05-15T00:54:50.829Z,348.17
2018-05-15T00:57:18.550Z,336.77
2018-05-15T00:59:46.040Z,368.80
2018-05-15T01:02:13.604Z,375.33
2018-05-15T01:04:41.101Z,362.73
2018-05-15T01:07:08.589Z,401.80
2018-05-15T01:09:36.077Z,408.97
2018-05-15T01:12:03.563Z,392.43
2018-05-15T01:14:31.269Z,433.23
2018-05-15T01:16:58.741Z,421.03
2018-05-15T01:19:27.008Z,420.20
2018-05-15T01:21:54.492Z,429.57
2018-05-15T01:24:22.756Z,448.00
2018-05-15T01:26:51.010Z,465.03
2018-05-15T01:29:18.521Z,437.60
2018-05-15T01:31:46.132Z,416.47
2018-05-15T01:34:13.611Z,470.67
2018-05-15T01:36:41.861Z,463.23
2018-05-15T01:39:09.338Z,466.33
2018-05-15T01:41:36.847Z,449.13
2018-05-15T01:44:04.329Z,475.03
2018-05-15T01:46:31.818Z,460.73
2018-05-15T01:48:59.336Z,475.43
2018-05-15T01:51:26.836Z,477.70
2018-05-15T01:53:54.297Z,468.30
2018-05-15T01:56:21.969Z,482.53
2018-05-15T01:58:50.304Z,440.73
2018-05-15T02:01:17.807Z,460.93
2018-05-15T02:03:46.053Z,450.13
2018-05-15T02:06:13.537Z,437.63
2018-05-15T02:08:41.845Z,447.50
2018-05-15T02:11:09.325Z,407.60
2018-05-15T02:13:36.848Z,415.67
2018-05-15T02:16:05.086Z,399.03
2018-05-15T02:18:32.745Z,404.30
2018-05-15T02:21:00.993Z,406.47
2018-05-15T02:23:28.522Z,368.27
2018-05-15T02:25:56.025Z,415.97
2018-05-15T02:28:23.524Z,418.53
2018-05-15T02:30:51.019Z,406.17
2018-05-15T02:33:18.511Z,394.83
2018-05-15T02:35:45.991Z,408.90
2018-05-15T02:38:13.474Z,414.43
2018-05-15T02:40:41.712Z,394.10
2018-05-15T02:43:09.231Z,429.00
2018-05-15T02:45:36.751Z,408.63
2018-05-15T02:48:04.251Z,396.93
2018-05-15T02:50:31.951Z,384.37
2018-05-15T02:52:59.451Z,413.40
2018-05-15T02:55:28.096Z,429.13
2018-05-15T02:57:55.587Z,408.33
2018-05-15T03:00:23.838Z,396.97
2018-05-15T03:02:51.312Z,381.60
2018-05-15T03:05:19.020Z,404.97
2018-05-15T03:07:46.498Z,393.17
2018-05-15T03:10:14.032Z,351.20
2018-05-15T03:12:41.543Z,354.87
2018-05-15T03:15:09.046Z,385.90
2018-05-15T03:17:36.531Z,338.23
2018-05-15T03:20:04.019Z,356.07
2018-05-15T03:22:32.380Z,370.43
2018-05-15T03:24:59.898Z,327.13
2018-05-15T03:27:28.136Z,349.00
2018-05-15T03:29:55.665Z,332.43
2018-05-15T03:32:23.565Z,332.57
2018-05-15T03:34:51.074Z,348.10
2018-05-15T03:37:18.577Z,370.77
2018-05-15T03:39:46.142Z,348.27
2018-05-15T03:42:13.775Z,333.63
2018-05-15T03:44:41.281Z,350.37
2018-05-15T03:47:08.801Z,341.70
2018-05-15T03:49:36.310Z,332.67
2018-05-15T03:52:04.914Z,347.03
2018-05-15T03:54:32.529Z,337.80
2018-05-15T03:57:00.808Z,348.07
2018-05-15T03:59:28.299Z,310.40
2018-05-15T04:02:08.479Z,323.23
2018-05-15T04:04:47.954Z,307.87
2018-05-15T04:07:27.320Z,329.40
2018-05-15T04:09:55.561Z,330.87
2018-05-15T04:12:24.142Z,325.47
2018-05-15T04:14:53.258Z,281.47
2018-05-15T04:17:20.760Z,293.43
2018-05-15T04:19:48.268Z,316.23
2018-05-15T04:22:15.755Z,305.20
2018-05-15T04:24:43.244Z,309.57
2018-05-15T04:27:10.753Z,335.23
2018-05-15T04:29:38.353Z,291.57
2018-05-15T04:32:05.816Z,291.20
2018-05-15T04:34:33.332Z,294.97
2018-05-15T04:37:01.052Z,281.27
2018-05-15T04:39:28.573Z,301.33
2018-05-15T04:41:56.829Z,318.47
2018-05-15T04:44:24.388Z,295.77
2018-05-15T04:46:51.890Z,256.23
2018-05-15T04:49:19.563Z,256.17
2018-05-15T04:51:47.836Z,259.43
2018-05-15T04:54:16.103Z,268.07
2018-05-15T04:56:44.463Z,261.70
2018-05-15T04:59:12.665Z,279.10
2018-05-15T05:01:41.093Z,264.23
2018-05-15T05:04:08.584Z,262.73
2018-05-15T05:06:36.120Z,238.50
2018-05-15T05:09:03.628Z,260.50
2018-05-15T05:11:31.913Z,241.87
2018-05-15T05:13:59.391Z,263.17
2018-05-15T05:16:26.903Z,246.50
2018-05-15T05:18:55.322Z,235.13
2018-05-15T05:21:22.816Z,223.13
2018-05-15T05:23:50.351Z,228.57
2018-05-15T05:26:17.820Z,224.07
2018-05-15T05:28:45.338Z,227.47
2018-05-15T05:31:12.851Z,242.03
2018-05-15T05:33:40.348Z,213.70
2018-05-15T05:36:07.817Z,218.43
2018-05-15T05:38:35.289Z,200.23
2018-05-15T05:41:02.777Z,207.10
2018-05-15T05:43:30.245Z,195.27
2018-05-15T05:45:57.718Z,195.63
2018-05-15T05:48:25.234Z,174.40
2018-05-15T05:50:53.162Z,187.67
2018-05-15T05:53:21.502Z,199.53
2018-05-15T05:55:48.998Z,165.90
2018-05-15T05:58:17.259Z,182.93
2018-05-15T06:00:44.731Z,168.20
2018-05-15T06:03:13.131Z,210.87
2018-05-15T06:05:41.363Z,180.63
2018-05-15T06:08:09.860Z,174.17
2018-05-15T06:10:37.355Z,153.60
2018-05-15T06:13:04.846Z,161.77
2018-05-15T06:15:32.950Z,145.50
2018-05-15T06:18:00.485Z,146.53
2018-05-15T06:20:28.386Z,137.97
2018-05-15T06:22:56.065Z,134.70
2018-05-15T06:25:25.038Z,143.87
2018-05-15T06:27:52.620Z,142.00
2018-05-15T06:30:21.046Z,148.53
2018-05-15T06:32:48.609Z,134.03
2018-05-15T06:35:16.096Z,119.67
2018-05-15T06:37:44.407Z,132.33
2018-05-15T06:40:12.709Z,125.03
2018-05-15T06:42:40.269Z,124.57
2018-05-15T06:45:07.732Z,121.13
2018-05-15T06:47:37.165Z,133.50
2018-05-15T06:50:04.648Z,117.10
2018-05-15T06:52:33.005Z,120.27
2018-05-15T06:55:00.548Z,118.87
2018-05-15T06:57:28.293Z,116.22
2018-05-15T06:59:55.802Z,106.32
2018-05-15T07:02:23.305Z,105.65
2018-05-15T07:04:50.780Z,106.87
2018-05-15T07:07:18.297Z,91.55
2018-05-15T07:09:45.818Z,95.28
2018-05-15T07:12:13.309Z,98.40
2018-05-15T07:14:41.556Z,96.40
2018-05-15T07:17:09.052Z,90.12
2018-05-15T07:19:37.539Z,89.57
2018-05-15T07:22:05.803Z,94.97
2018-05-15T07:24:33.812Z,86.12
2018-05-15T07:27:01.366Z,75.12
2018-05-15T07:29:29.314Z,76.03
2018-05-15T07:31:57.562Z,83.55
2018-05-15T07:34:25.150Z,68.45
2018-05-15T07:36:53.381Z,73.28
2018-05-15T07:39:20.874Z,64.47
2018-05-15T07:41:49.115Z,51.40
2018-05-15T07:44:16.585Z,50.70
2018-05-15T07:46:44.848Z,50.85
2018-05-15T07:49:12.324Z,47.28
2018-05-15T07:51:39.829Z,51.80
2018-05-15T07:54:07.350Z,51.75
2018-05-15T07:56:36.354Z,53.00
2018-05-15T07:59:04.230Z,53.08
2018-05-15T08:01:32.503Z,51.45
2018-05-15T08:03:59.979Z,51.08
2018-05-15T08:06:27.499Z,53.00
2018-05-15T08:08:54.982Z,54.45
2018-05-15T08:11:24.570Z,51.05
2018-05-15T08:13:52.841Z,48.97
2018-05-15T08:16:20.754Z,49.10
2018-05-15T08:18:48.233Z,53.25
2018-05-15T08:21:15.727Z,44.83
2018-05-15T08:23:43.220Z,39.63
2018-05-15T08:26:10.793Z,40.97
2018-05-15T08:28:39.076Z,49.42
2018-05-15T08:31:06.820Z,40.12
2018-05-15T08:33:35.605Z,40.15
2018-05-15T08:36:03.929Z,37.90
2018-05-15T08:38:31.432Z,32.53
2018-05-15T08:40:58.997Z,40.17
2018-05-15T08:43:26.506Z,31.83
2018-05-15T08:45:53.985Z,30.12
2018-05-15T08:48:21.469Z,28.25
2018-05-15T08:50:48.985Z,33.22
2018-05-15T08:53:16.471Z,33.38
2018-05-15T08:55:43.938Z,29.00
2018-05-15T08:58:11.617Z,23.12
2018-05-15T09:00:39.280Z,18.95
2018-05-15T09:03:07.547Z,17.65
2018-05-15T09:05:35.850Z,16.65
2018-05-15T09:08:04.077Z,17.48
2018-05-15T09:10:31.718Z,16.55
2018-05-15T09:12:59.204Z,15.10
2018-05-15T09:15:27.186Z,15.40
2018-05-15T09:17:54.727Z,14.82
2018-05-15T09:20:22.205Z,14.63
2018-05-15T09:22:49.667Z,15.35
2018-05-15T09:25:17.148Z,17.35
2018-05-15T09:27:45.391Z,14.57
2018-05-15T09:30:12.972Z,14.15
2018-05-15T09:32:40.452Z,15.32
2018-05-15T09:35:08.789Z,15.60
2018-05-15T09:37:36.266Z,14.85
2018-05-15T09:40:05.267Z,20.77
2018-05-15T09:42:32.743Z,13.15
2018-05-15T09:45:01.382Z,15.77
2018-05-15T09:47:29.140Z,13.25
2018-05-15T09:49:56.857Z,13.88
2018-05-15T09:52:25.276Z,13.45
2018-05-15T09:54:53.434Z,12.30
2018-05-15T09:57:21.433Z,13.00
2018-05-15T09:59:48.941Z,11.75
2018-05-15T10:02:17.187Z,11.80
2018-05-15T10:04:44.749Z,13.05
2018-05-15T10:07:12.994Z,10.73
2018-05-15T10:09:40.485Z,11.05
2018-05-15T10:12:08.024Z,9.90
2018-05-15T10:14:36.072Z,12.60
2018-05-15T10:17:03.775Z,8.52
2018-05-15T10:19:32.027Z,8.88
2018-05-15T10:21:59.519Z,9.05
2018-05-15T10:24:26.980Z,10.55
2018-05-15T10:26:54.492Z,8.15
2018-05-15T10:29:23.130Z,9.13
2018-05-15T10:31:51.518Z,13.40
2018-05-15T10:34:19.000Z,8.73
2018-05-15T10:36:47.577Z,10.50
2018-05-15T10:39:16.257Z,9.02
2018-05-15T10:41:43.905Z,9.30
2018-05-15T10:44:11.392Z,8.18
2018-05-15T10:46:38.903Z,8.45
2018-05-15T10:49:06.378Z,7.85
2018-05-15T10:51:34.581Z,9.57
2018-05-15T10:54:02.872Z,8.55
2018-05-15T10:56:30.371Z,20.23
2018-05-15T10:58:57.831Z,8.27
2018-05-15T11:01:25.857Z,8.30
2018-05-15T11:03:53.517Z,12.00
2018-05-15T11:06:22.533Z,10.43
2018-05-15T11:08:50.209Z,9.13
2018-05-15T11:11:17.721Z,9.18
2018-05-15T11:13:46.236Z,8.00
2018-05-15T11:16:13.801Z,9.00
2018-05-15T11:18:41.367Z,8.57
2018-05-15T11:21:20.964Z,13.38
2018-05-15T11:24:01.749Z,9.07
2018-05-15T11:26:30.379Z,10.30
2018-05-15T11:28:58.801Z,9.03
2018-05-15T11:31:27.523Z,9.00
2018-05-15T11:33:55.053Z,11.33
2018-05-15T11:36:23.321Z,9.03
2018-05-15T11:38:50.834Z,16.87
2018-05-15T11:41:18.448Z,14.23
2018-05-15T11:43:46.700Z,10.00
2018-05-15T11:46:14.190Z,9.20
2018-05-15T11:48:48.339Z,10.57
2018-05-15T11:51:26.663Z,16.73
2018-05-15T11:53:54.567Z,23.83
2018-05-15T11:56:22.223Z,10.38
2018-05-15T11:58:49.916Z,9.70
2018-05-15T12:01:17.407Z,9.40
2018-05-15T12:03:44.925Z,10.63
2018-05-15T12:06:12.407Z,9.53
2018-05-15T12:08:39.870Z,9.55
2018-05-15T12:11:07.389Z,11.23
2018-05-15T12:13:35.140Z,10.10
2018-05-15T12:16:02.704Z,11.83
2018-05-15T12:18:31.551Z,20.93
2018-05-15T12:20:59.030Z,10.40
2018-05-15T12:23:26.682Z,10.50
2018-05-15T12:25:54.240Z,11.13
2018-05-15T12:28:21.929Z,10.73
2018-05-15T12:30:49.458Z,9.23
2018-05-15T12:33:16.957Z,9.87
2018-05-15T12:35:44.478Z,9.87
2018-05-15T12:38:11.941Z,14.07
2018-05-15T12:40:39.418Z,9.27
2018-05-15T12:43:06.897Z,14.87
2018-05-15T12:45:34.385Z,8.83
2018-05-15T12:48:02.724Z,11.23
2018-05-15T12:50:30.184Z,11.57
2018-05-15T12:52:57.657Z,9.57
2018-05-15T12:55:25.148Z,10.90
2018-05-15T12:57:53.404Z,9.80
2018-05-15T13:00:20.895Z,10.03
2018-05-15T13:02:48.571Z,9.00
2018-05-15T13:05:16.163Z,9.07
2018-05-15T13:07:43.643Z,9.13
2018-05-15T13:10:11.135Z,9.30
2018-05-15T13:12:38.619Z,9.40
2018-05-15T13:15:06.121Z,12.40
2018-05-15T13:17:34.401Z,10.40
2018-05-15T13:20:01.877Z,8.83
2018-05-15T13:22:30.140Z,9.07
2018-05-15T13:24:57.642Z,9.57
2018-05-15T13:27:25.110Z,13.40
2018-05-15T13:29:52.642Z,11.00
2018-05-15T13:32:20.080Z,10.07
2018-05-15T13:34:48.329Z,9.10
2018-05-15T13:37:15.813Z,9.80
2018-05-15T13:39:43.318Z,9.03
2018-05-15T13:42:10.969Z,9.13
2018-05-15T13:44:38.486Z,8.87
2018-05-15T13:47:05.981Z,13.17
2018-05-15T13:49:33.476Z,12.93
2018-05-15T13:52:01.326Z,8.63
2018-05-15T13:54:28.877Z,9.63
2018-05-15T13:56:56.380Z,9.20
2018-05-15T13:59:24.669Z,8.73
2018-05-15T14:01:52.913Z,8.43
2018-05-15T14:04:20.394Z,9.83
2018-05-15T14:06:47.880Z,8.07
2018-05-15T14:09:16.125Z,9.00
2018-05-15T14:11:43.658Z,8.50
2018-05-15T14:14:11.183Z,8.27
2018-05-15T14:16:38.783Z,8.37
2018-05-15T14:19:06.262Z,10.50
2018-05-15T14:21:33.765Z,8.27
2018-05-15T14:24:02.048Z,7.03
2018-05-15T14:26:30.335Z,7.77
2018-05-15T14:28:57.848Z,8.03
2018-05-15T14:31:25.383Z,7.90
2018-05-15T14:33:52.878Z,7.67
2018-05-15T14:36:20.368Z,8.50
2018-05-15T14:38:47.839Z,7.50
2018-05-15T14:41:15.368Z,7.40
2018-05-15T14:43:43.618Z,8.43
2018-05-15T14:46:11.101Z,7.90
2018-05-15T14:48:39.695Z,12.27
2018-05-15T14:54:09.260Z,7.83
2018-05-15T14:56:37.223Z,8.73
2018-05-15T14:59:04.753Z,8.17
2018-05-15T15:01:33.723Z,8.33
2018-05-15T15:04:01.964Z,9.30
2018-05-15T15:06:29.666Z,7.07
2018-05-15T15:08:57.926Z,9.83
2018-05-15T15:11:25.397Z,7.93
2018-05-15T15:13:52.897Z,7.50
2018-05-15T15:16:20.387Z,8.27
2018-05-15T15:18:47.866Z,8.57
2018-05-15T15:21:15.498Z,8.30
2018-05-15T15:23:43.006Z,12.40
2018-05-15T15:26:11.140Z,8.73
2018-05-15T15:28:38.629Z,11.87
2018-05-15T15:31:06.239Z,9.53
2018-05-15T15:33:33.720Z,10.30
2018-05-15T15:36:01.208Z,9.53
2018-05-15T15:38:28.686Z,10.30
2018-05-15T15:40:57.013Z,10.77
2018-05-15T15:43:24.550Z,9.50
2018-05-15T15:45:52.090Z,12.03
2018-05-15T15:48:20.426Z,10.57
2018-05-15T15:50:47.902Z,10.13
2018-05-15T15:53:15.495Z,10.97
2018-05-15T15:55:42.989Z,12.17
2018-05-15T15:58:10.482Z,9.20
2018-05-15T16:00:37.968Z,13.97
2018-05-15T16:03:06.263Z,10.07
2018-05-15T16:05:34.188Z,10.20
2018-05-15T16:08:03.212Z,12.57
2018-05-15T16:10:30.706Z,9.40
2018-05-15T16:12:58.198Z,9.03
2018-05-15T16:15:26.163Z,10.70
2018-05-15T16:17:53.694Z,16.20
2018-05-15T16:20:22.793Z,10.07
2018-05-15T16:22:50.508Z,9.77
2018-05-15T16:25:21.086Z,15.20
2018-05-15T16:27:48.723Z,9.27
2018-05-15T16:30:16.239Z,9.73
2018-05-15T16:32:45.325Z,12.83
2018-05-15T16:35:12.726Z,9.50
2018-05-15T16:37:41.054Z,15.13
2018-05-15T16:40:08.713Z,10.00
2018-05-15T16:42:36.283Z,8.50
2018-05-15T16:45:03.764Z,9.77
2018-05-15T16:47:31.342Z,9.10
2018-05-15T16:49:59.495Z,12.93
2018-05-15T16:52:27.031Z,9.37
2018-05-15T16:54:54.505Z,11.53
2018-05-15T16:57:21.980Z,8.80
2018-05-15T16:59:49.464Z,9.20
2018-05-15T17:02:17.074Z,9.57
2018-05-15T17:04:44.718Z,10.70
2018-05-15T17:07:12.718Z,13.23
2018-05-15T17:09:40.998Z,9.23
2018-05-15T17:12:09.290Z,9.13
2018-05-15T17:14:36.816Z,8.23
2018-05-15T17:17:04.528Z,8.33
2018-05-15T17:19:32.753Z,8.37
2018-05-15T17:22:00.389Z,9.30
2018-05-15T17:24:27.924Z,14.60
2018-05-15T17:26:55.425Z,11.70
2018-05-15T17:29:22.897Z,9.70
2018-05-15T17:31:51.079Z,10.30
2018-05-15T17:34:19.392Z,10.70
2018-05-15T17:36:46.902Z,10.03
2018-05-15T17:39:14.374Z,10.00
2018-05-15T17:41:42.649Z,10.23
2018-05-15T17:44:10.144Z,10.10
2018-05-15T17:46:38.403Z,10.37
2018-05-15T17:49:05.893Z,10.17
2018-05-15T17:51:34.132Z,10.17
2018-05-15T17:54:01.653Z,10.63
2018-05-15T17:56:29.343Z,10.33
2018-05-15T17:58:57.084Z,10.27
2018-05-15T18:01:24.573Z,11.67
2018-05-15T18:03:52.064Z,10.07
2018-05-15T18:06:19.542Z,10.90
2018-05-15T18:08:47.863Z,15.10
2018-05-15T18:11:15.365Z,9.60
2018-05-15T18:13:43.707Z,11.50
2018-05-15T18:16:12.452Z,10.67
2018-05-15T18:18:40.056Z,10.60
2018-05-15T18:21:08.002Z,10.67
2018-05-15T18:23:36.215Z,9.70
2018-05-15T18:26:03.810Z,13.33
2018-05-15T18:28:32.054Z,11.70
2018-05-15T18:30:59.584Z,10.97
2018-05-15T18:33:27.070Z,12.70
2018-05-15T18:35:55.051Z,10.37
2018-05-15T18:38:22.566Z,10.03
2018-05-15T18:40:50.289Z,9.80
2018-05-15T18:43:20.390Z,9.37
2018-05-15T18:45:47.985Z,11.30
2018-05-15T18:48:15.811Z,9.30
2018-05-15T18:50:43.926Z,14.53
2018-05-15T18:53:11.442Z,9.93
2018-05-15T18:55:39.242Z,9.70
2018-05-15T18:58:07.502Z,9.77
2018-05-15T19:00:35.102Z,8.87
2018-05-15T19:03:02.577Z,10.70
2018-05-15T19:05:30.882Z,10.20
2018-05-15T19:07:58.463Z,10.80
2018-05-15T19:10:26.259Z,9.83
2018-05-15T19:12:54.548Z,12.40
2018-05-15T19:15:22.534Z,10.30
2018-05-15T19:17:50.038Z,10.27
2018-05-15T19:20:17.689Z,9.70
2018-05-15T19:22:45.204Z,13.27
2018-05-15T19:25:12.716Z,9.80
2018-05-15T19:27:40.294Z,13.77
2018-05-15T19:30:07.856Z,16.37
2018-05-15T19:32:39.056Z,12.27
2018-05-15T19:35:07.456Z,14.30
2018-05-15T19:37:34.918Z,8.77
2018-05-15T19:40:08.208Z,9.67
2018-05-15T19:42:35.683Z,10.23
2018-05-15T19:45:03.333Z,12.27
2018-05-15T19:47:30.721Z,16.43
2018-05-15T19:49:58.837Z,10.20
2018-05-15T19:52:26.325Z,9.83
2018-05-15T19:54:53.813Z,10.23
2018-05-15T19:57:21.335Z,8.07
2018-05-15T19:59:48.808Z,9.10
2018-05-15T20:02:17.043Z,8.57
2018-05-15T20:04:44.536Z,9.57
2018-05-15T20:07:12.002Z,8.03
2018-05-15T20:09:39.512Z,8.70
2018-05-15T20:12:07.027Z,11.60
2018-05-15T20:14:34.766Z,11.43
2018-05-15T20:17:02.254Z,9.30
2018-05-15T20:19:29.798Z,8.67
2018-05-15T20:21:57.348Z,11.20
2018-05-15T20:24:24.842Z,10.30
2018-05-15T20:26:52.356Z,8.90
2018-05-15T20:29:19.859Z,28.77
2018-05-15T20:31:47.459Z,10.73
2018-05-15T20:34:14.989Z,17.33
2018-05-15T20:36:42.996Z,10.20
2018-05-15T20:39:10.486Z,13.03
2018-05-15T20:41:38.157Z,10.27
2018-05-15T20:44:05.718Z,11.37
2018-05-15T20:46:33.260Z,11.80
2018-05-15T20:49:00.785Z,10.70
2018-05-15T20:51:28.288Z,11.03
2018-05-15T20:53:55.768Z,13.20
2018-05-15T20:56:23.298Z,12.40
2018-05-15T20:58:50.790Z,12.90
2018-05-15T21:01:18.350Z,12.90
2018-05-15T21:03:45.861Z,14.47
2018-05-15T21:06:13.413Z,14.20
2018-05-15T21:08:41.529Z,16.33
2018-05-15T21:11:09.994Z,15.17
2018-05-15T21:13:37.656Z,14.07
2018-05-15T21:16:05.128Z,15.00
2018-05-15T21:18:32.699Z,14.37
2018-05-15T21:21:00.212Z,15.70
2018-05-15T21:23:27.722Z,14.60
2018-05-15T21:25:55.251Z,14.80
2018-05-15T21:28:22.758Z,14.40
2018-05-15T21:30:51.047Z,17.73
2018-05-15T21:33:18.578Z,15.60
2018-05-15T21:35:46.082Z,15.53
2018-05-15T21:38:13.556Z,16.07
2018-05-15T21:40:41.048Z,18.90
2018-05-15T21:43:08.589Z,21.57
2018-05-15T21:45:36.132Z,25.03
2018-05-15T21:48:03.609Z,18.73
2018-05-15T21:50:31.107Z,21.80
2018-05-15T21:52:58.657Z,19.30
2018-05-15T21:55:26.190Z,22.30
2018-05-15T21:57:53.748Z,23.00
2018-05-15T22:00:21.243Z,22.57
2018-05-15T22:02:48.735Z,18.37
2018-05-15T22:05:16.201Z,20.20
2018-05-15T22:07:43.696Z,18.00
2018-05-15T22:10:11.175Z,19.23
2018-05-15T22:12:51.029Z,19.00
2018-05-15T22:15:30.384Z,22.30
2018-05-15T22:18:10.579Z,28.37
2018-05-15T22:20:50.134Z,18.83
2018-05-15T22:23:17.177Z,17.07
2018-05-15T22:25:44.714Z,20.10
2018-05-15T22:28:12.189Z,18.60
2018-05-15T22:30:39.735Z,24.70
2018-05-15T22:33:07.249Z,20.17
2018-05-15T22:35:34.738Z,19.50
2018-05-15T22:38:02.240Z,20.20
2018-05-15T22:40:29.777Z,26.40
2018-05-15T22:42:57.265Z,21.40
2018-05-15T22:45:25.133Z,22.63
2018-05-15T22:47:52.645Z,22.60
2018-05-15T22:50:20.504Z,20.03
2018-05-15T22:52:48.782Z,21.57
2018-05-15T22:55:17.067Z,22.83
2018-05-15T22:57:44.539Z,27.77
2018-05-15T23:00:12.048Z,21.87
2018-05-15T23:02:40.180Z,25.17
2018-05-15T23:05:07.703Z,25.23
2018-05-15T23:07:35.967Z,26.97
2018-05-15T23:10:03.477Z,25.23
2018-05-15T23:12:30.943Z,21.70
2018-05-15T23:14:58.592Z,22.13
2018-05-15T23:17:26.102Z,21.87
2018-05-15T23:19:53.589Z,19.87
2018-05-15T23:22:32.999Z,21.63
2018-05-15T23:25:01.250Z,21.07
2018-05-15T23:27:28.720Z,25.93
2018-05-15T23:29:56.252Z,19.57
2018-05-15T23:32:23.769Z,21.07
2018-05-15T23:34:51.271Z,19.60
2018-05-15T23:37:18.822Z,30.47
2018-05-15T23:39:46.281Z,24.20
2018-05-15T23:42:13.775Z,20.47
2018-05-15T23:44:41.243Z,20.40
2018-05-15T23:47:08.732Z,29.03
2018-05-15T23:49:36.963Z,22.47
2018-05-15T23:52:04.471Z,22.13
2018-05-15T23:54:32.706Z,22.80
2018-05-15T23:57:00.344Z,22.93
2018-05-15T23:59:27.817Z,23.73
